Kimball, Nebraska
Current Conditions -  °F | °C
As of 5:35 PM on Monday 22 Dec 2014 (Local Time) from KIBM Reporting Station
Clear Clear  
Wind Chill: 19°   Ceiling: Unl
Heat Index: 31°   Visibility: 10mi
Dew Point: 24°   Wind: 18mph
Humidity: 76%   Direction: 320°NW
Pressure: 29.67"   Gusts: 23mph
Location:  41.24°N, 103.66°W
Report Text: KIBM 230035Z AUTO 32016G20KT 10SM CLR M01/M04 A2967 RMK AO2 T10081045
Loading
Personal Weather Stations






























Interactive Weather Map New forecast layout! Learn more

10-Day Weather Forecast

Advertisements
Track Severe Weather on mobile